sensor_id;sensor_type;location;lat;lon;timestamp;pressure;altitude;pressure_sealevel;temperature;humidity
78835;BME280;68187;42.682;23.352;2023-03-13T00:00:56;95394.97;;;2.71;50.29
78835;BME280;68187;42.682;23.352;2023-03-13T00:03:23;95399.44;;;2.64;50.90
78835;BME280;68187;42.682;23.352;2023-03-13T00:05:54;95385.84;;;2.55;51.22
78835;BME280;68187;42.682;23.352;2023-03-13T00:08:21;95391.03;;;2.62;51.35
78835;BME280;68187;42.682;23.352;2023-03-13T00:10:48;95385.22;;;2.60;51.54
78835;BME280;68187;42.682;23.352;2023-03-13T00:13:16;95392.41;;;2.64;52.24
78835;BME280;68187;42.682;23.352;2023-03-13T00:15:43;95394.22;;;2.64;52.73
78835;BME280;68187;42.682;23.352;2023-03-13T00:18:09;95395.81;;;2.65;51.09
78835;BME280;68187;42.682;23.352;2023-03-13T00:20:36;95391.88;;;2.56;51.49
78835;BME280;68187;42.682;23.352;2023-03-13T00:23:03;95403.44;;;2.66;51.40
78835;BME280;68187;42.682;23.352;2023-03-13T00:25:30;95414.72;;;2.60;51.30
78835;BME280;68187;42.682;23.352;2023-03-13T00:27:56;95405.91;;;2.55;50.95
78835;BME280;68187;42.682;23.352;2023-03-13T00:30:24;95416.13;;;2.56;50.93
78835;BME280;68187;42.682;23.352;2023-03-13T00:32:51;95402.72;;;2.46;51.86
78835;BME280;68187;42.682;23.352;2023-03-13T00:35:18;95410.97;;;2.50;51.13
78835;BME280;68187;42.682;23.352;2023-03-13T00:37:44;95410.75;;;2.51;50.60
78835;BME280;68187;42.682;23.352;2023-03-13T00:40:11;95408.53;;;2.48;50.30
78835;BME280;68187;42.682;23.352;2023-03-13T00:42:38;95412.31;;;2.52;51.63
78835;BME280;68187;42.682;23.352;2023-03-13T00:45:06;95402.31;;;2.49;51.49
78835;BME280;68187;42.682;23.352;2023-03-13T00:47:34;95404.13;;;2.49;51.18
78835;BME280;68187;42.682;23.352;2023-03-13T00:50:00;95413.97;;;2.47;50.77
78835;BME280;68187;42.682;23.352;2023-03-13T00:52:27;95399.31;;;2.46;50.67
78835;BME280;68187;42.682;23.352;2023-03-13T00:54:54;95398.72;;;2.44;50.85
78835;BME280;68187;42.682;23.352;2023-03-13T00:57:21;95396.34;;;2.42;51.80
78835;BME280;68187;42.682;23.352;2023-03-13T00:59:47;95393.94;;;2.41;51.00
78835;BME280;68187;42.682;23.352;2023-03-13T01:02:14;95403.75;;;2.39;51.73
78835;BME280;68187;42.682;23.352;2023-03-13T01:04:42;95398.41;;;2.34;51.24
78835;BME280;68187;42.682;23.352;2023-03-13T01:07:09;95399.56;;;2.38;51.53
78835;BME280;68187;42.682;23.352;2023-03-13T01:09:35;95402.78;;;2.40;51.84
78835;BME280;68187;42.682;23.352;2023-03-13T01:12:03;95407.34;;;2.44;51.68
78835;BME280;68187;42.682;23.352;2023-03-13T01:14:29;95396.75;;;2.39;51.31
78835;BME280;68187;42.682;23.352;2023-03-13T01:16:56;95401.16;;;2.39;50.86
78835;BME280;68187;42.682;23.352;2023-03-13T01:19:23;95409.41;;;2.36;50.86
78835;BME280;68187;42.682;23.352;2023-03-13T01:21:51;95406.63;;;2.31;52.20
78835;BME280;68187;42.682;23.352;2023-03-13T01:24:18;95395.97;;;2.32;51.53
78835;BME280;68187;42.682;23.352;2023-03-13T01:26:44;95412.81;;;2.30;52.18
78835;BME280;68187;42.682;23.352;2023-03-13T01:29:11;95407.59;;;2.30;52.09
78835;BME280;68187;42.682;23.352;2023-03-13T01:31:38;95410.44;;;2.28;53.20
78835;BME280;68187;42.682;23.352;2023-03-13T01:34:05;95411.44;;;2.27;51.91
78835;BME280;68187;42.682;23.352;2023-03-13T01:36:34;95414.06;;;2.21;52.55
78835;BME280;68187;42.682;23.352;2023-03-13T01:39:04;95414.88;;;2.14;52.48
78835;BME280;68187;42.682;23.352;2023-03-13T01:41:31;95417.09;;;2.17;52.31
78835;BME280;68187;42.682;23.352;2023-03-13T01:43:58;95425.53;;;2.13;52.02
78835;BME280;68187;42.682;23.352;2023-03-13T01:46:25;95423.72;;;2.07;52.87
78835;BME280;68187;42.682;23.352;2023-03-13T01:48:56;95424.31;;;2.02;52.64
78835;BME280;68187;42.682;23.352;2023-03-13T01:51:27;95423.94;;;1.99;53.69
78835;BME280;68187;42.682;23.352;2023-03-13T01:53:59;95420.94;;;1.89;53.43
78835;BME280;68187;42.682;23.352;2023-03-13T01:56:33;95419.38;;;1.81;53.50
78835;BME280;68187;42.682;23.352;2023-03-13T01:59:03;95424.59;;;1.81;54.06
78835;BME280;68187;42.682;23.352;2023-03-13T02:01:30;95418.16;;;1.77;54.11
78835;BME280;68187;42.682;23.352;2023-03-13T02:03:58;95420.59;;;1.72;54.00
78835;BME280;68187;42.682;23.352;2023-03-13T02:06:27;95427.81;;;1.70;53.99
78835;BME280;68187;42.682;23.352;2023-03-13T02:08:57;95426.59;;;1.66;54.40
78835;BME280;68187;42.682;23.352;2023-03-13T02:11:30;95419.59;;;1.60;54.69
78835;BME280;68187;42.682;23.352;2023-03-13T02:13:59;95426.00;;;1.64;54.60
78835;BME280;68187;42.682;23.352;2023-03-13T02:16:28;95410.00;;;1.41;54.93
78835;BME280;68187;42.682;23.352;2023-03-13T02:18:55;95438.22;;;1.51;54.98
78835;BME280;68187;42.682;23.352;2023-03-13T02:21:32;95430.41;;;1.51;56.07
78835;BME280;68187;42.682;23.352;2023-03-13T02:24:08;95442.66;;;1.57;56.19
78835;BME280;68187;42.682;23.352;2023-03-13T02:26:40;95441.44;;;1.53;56.51
78835;BME280;68187;42.682;23.352;2023-03-13T02:29:08;95455.03;;;1.48;57.21
78835;BME280;68187;42.682;23.352;2023-03-13T02:31:43;95441.44;;;1.46;56.81
78835;BME280;68187;42.682;23.352;2023-03-13T02:34:11;95459.47;;;1.48;57.63
78835;BME280;68187;42.682;23.352;2023-03-13T02:36:39;95465.06;;;1.44;57.67
78835;BME280;68187;42.682;23.352;2023-03-13T02:39:07;95471.25;;;1.43;57.71
78835;BME280;68187;42.682;23.352;2023-03-13T02:41:35;95471.84;;;1.45;57.65
78835;BME280;68187;42.682;23.352;2023-03-13T02:44:03;95468.06;;;1.35;58.58
78835;BME280;68187;42.682;23.352;2023-03-13T02:46:42;95475.25;;;1.33;58.34
78835;BME280;68187;42.682;23.352;2023-03-13T02:49:19;95495.09;;;1.47;58.49
78835;BME280;68187;42.682;23.352;2023-03-13T02:51:46;95503.28;;;1.51;58.22
78835;BME280;68187;42.682;23.352;2023-03-13T02:54:18;95494.28;;;1.47;58.46
78835;BME280;68187;42.682;23.352;2023-03-13T02:56:46;95497.69;;;1.47;59.26
78835;BME280;68187;42.682;23.352;2023-03-13T02:59:16;95496.28;;;1.44;58.33
78835;BME280;68187;42.682;23.352;2023-03-13T03:01:43;95488.28;;;1.39;58.66
78835;BME280;68187;42.682;23.352;2023-03-13T03:04:10;95497.91;;;1.52;57.91
78835;BME280;68187;42.682;23.352;2023-03-13T03:06:37;95491.69;;;1.47;58.42
78835;BME280;68187;42.682;23.352;2023-03-13T03:09:04;95474.06;;;1.29;57.96
78835;BME280;68187;42.682;23.352;2023-03-13T03:11:31;95491.88;;;1.38;58.50
78835;BME280;68187;42.682;23.352;2023-03-13T03:13:57;95480.25;;;1.28;58.33
78835;BME280;68187;42.682;23.352;2023-03-13T03:16:25;95498.47;;;1.28;58.83
78835;BME280;68187;42.682;23.352;2023-03-13T03:18:52;95522.25;;;1.18;59.19
78835;BME280;68187;42.682;23.352;2023-03-13T03:21:19;95514.19;;;1.00;59.71
78835;BME280;68187;42.682;23.352;2023-03-13T03:23:46;95522.59;;;1.02;60.68
78835;BME280;68187;42.682;23.352;2023-03-13T03:26:13;95530.81;;;0.99;61.14
78835;BME280;68187;42.682;23.352;2023-03-13T03:28:40;95538.84;;;1.11;60.71
78835;BME280;68187;42.682;23.352;2023-03-13T03:31:09;95535.22;;;1.05;60.74
78835;BME280;68187;42.682;23.352;2023-03-13T03:33:38;95542.84;;;1.07;60.41
78835;BME280;68187;42.682;23.352;2023-03-13T03:36:07;95541.03;;;1.07;61.19
78835;BME280;68187;42.682;23.352;2023-03-13T03:38:35;95536.41;;;1.03;60.05
78835;BME280;68187;42.682;23.352;2023-03-13T03:41:02;95538.19;;;0.96;60.21
78835;BME280;68187;42.682;23.352;2023-03-13T03:43:28;95541.00;;;0.94;60.97
78835;BME280;68187;42.682;23.352;2023-03-13T03:45:55;95551.16;;;0.89;60.68
78835;BME280;68187;42.682;23.352;2023-03-13T03:48:22;95570.56;;;0.93;60.27
78835;BME280;68187;42.682;23.352;2023-03-13T03:50:50;95576.00;;;0.98;60.83
78835;BME280;68187;42.682;23.352;2023-03-13T03:53:17;95560.97;;;0.87;60.67
78835;BME280;68187;42.682;23.352;2023-03-13T03:55:44;95550.34;;;0.82;60.34
78835;BME280;68187;42.682;23.352;2023-03-13T03:58:11;95565.22;;;0.95;60.02
78835;BME280;68187;42.682;23.352;2023-03-13T04:00:37;95572.16;;;0.81;61.04
78835;BME280;68187;42.682;23.352;2023-03-13T04:03:04;95586.75;;;0.89;61.24
78835;BME280;68187;42.682;23.352;2023-03-13T04:05:31;95579.41;;;0.92;61.09
78835;BME280;68187;42.682;23.352;2023-03-13T04:07:59;95556.72;;;0.80;60.84
78835;BME280;68187;42.682;23.352;2023-03-13T04:10:26;95588.19;;;0.91;60.11
78835;BME280;68187;42.682;23.352;2023-03-13T04:12:52;95579.75;;;0.83;60.46
78835;BME280;68187;42.682;23.352;2023-03-13T04:15:19;95599.16;;;0.87;60.89
78835;BME280;68187;42.682;23.352;2023-03-13T04:17:46;95597.97;;;0.89;60.75
78835;BME280;68187;42.682;23.352;2023-03-13T04:20:13;95602.94;;;0.84;60.39
78835;BME280;68187;42.682;23.352;2023-03-13T04:22:40;95592.31;;;0.73;60.60
78835;BME280;68187;42.682;23.352;2023-03-13T04:25:09;95614.72;;;0.80;61.56
78835;BME280;68187;42.682;23.352;2023-03-13T04:27:36;95611.31;;;0.80;60.99
78835;BME280;68187;42.682;23.352;2023-03-13T04:30:03;95603.91;;;0.70;60.79
78835;BME280;68187;42.682;23.352;2023-03-13T04:32:31;95618.50;;;0.78;61.23
78835;BME280;68187;42.682;23.352;2023-03-13T04:34:58;95615.28;;;0.69;61.12
78835;BME280;68187;42.682;23.352;2023-03-13T04:37:24;95627.31;;;0.77;61.59
78835;BME280;68187;42.682;23.352;2023-03-13T04:39:51;95618.09;;;0.74;61.63
78835;BME280;68187;42.682;23.352;2023-03-13T04:42:19;95637.47;;;0.71;61.41
78835;BME280;68187;42.682;23.352;2023-03-13T04:44:46;95631.44;;;0.64;61.91
78835;BME280;68187;42.682;23.352;2023-03-13T04:47:13;95651.28;;;0.72;62.18
78835;BME280;68187;42.682;23.352;2023-03-13T04:49:39;95634.66;;;0.66;61.00
78835;BME280;68187;42.682;23.352;2023-03-13T04:52:06;95651.84;;;0.67;61.95
78835;BME280;68187;42.682;23.352;2023-03-13T04:54:33;95645.38;;;0.57;61.41
78835;BME280;68187;42.682;23.352;2023-03-13T04:57:00;95655.63;;;0.65;61.53
78835;BME280;68187;42.682;23.352;2023-03-13T04:59:28;95646.00;;;0.59;62.10
78835;BME280;68187;42.682;23.352;2023-03-13T05:01:54;95643.78;;;0.56;61.53
78835;BME280;68187;42.682;23.352;2023-03-13T05:04:21;95657.38;;;0.58;62.29
78835;BME280;68187;42.682;23.352;2023-03-13T05:06:48;95659.78;;;0.59;62.08
78835;BME280;68187;42.682;23.352;2023-03-13T05:09:14;95655.41;;;0.60;62.07
78835;BME280;68187;42.682;23.352;2023-03-13T05:11:41;95650.41;;;0.58;62.14
78835;BME280;68187;42.682;23.352;2023-03-13T05:14:08;95653.41;;;0.62;61.45
78835;BME280;68187;42.682;23.352;2023-03-13T05:16:37;95643.97;;;0.54;62.55
78835;BME280;68187;42.682;23.352;2023-03-13T05:19:04;95671.88;;;0.73;62.32
78835;BME280;68187;42.682;23.352;2023-03-13T05:21:30;95676.53;;;0.85;61.67
78835;BME280;68187;42.682;23.352;2023-03-13T05:23:57;95666.75;;;0.87;62.85
78835;BME280;68187;42.682;23.352;2023-03-13T05:26:24;95681.22;;;0.96;63.14
78835;BME280;68187;42.682;23.352;2023-03-13T05:28:51;95684.06;;;1.07;62.27
78835;BME280;68187;42.682;23.352;2023-03-13T05:31:17;95684.91;;;1.14;62.28
78835;BME280;68187;42.682;23.352;2023-03-13T05:33:45;95691.78;;;1.22;62.76
78835;BME280;68187;42.682;23.352;2023-03-13T05:36:12;95688.00;;;1.31;62.56
78835;BME280;68187;42.682;23.352;2023-03-13T05:38:39;95679.41;;;1.37;62.02
78835;BME280;68187;42.682;23.352;2023-03-13T05:41:06;95692.06;;;1.47;60.78
78835;BME280;68187;42.682;23.352;2023-03-13T05:43:32;95693.72;;;1.54;60.89
78835;BME280;68187;42.682;23.352;2023-03-13T05:45:59;95697.75;;;1.63;61.36
78835;BME280;68187;42.682;23.352;2023-03-13T05:48:26;95692.94;;;1.67;59.19
78835;BME280;68187;42.682;23.352;2023-03-13T05:50:54;95688.75;;;1.66;57.36
78835;BME280;68187;42.682;23.352;2023-03-13T05:53:21;95694.97;;;1.78;56.87
78835;BME280;68187;42.682;23.352;2023-03-13T05:55:47;95694.00;;;1.85;56.76
78835;BME280;68187;42.682;23.352;2023-03-13T05:58:14;95708.03;;;1.91;56.49
78835;BME280;68187;42.682;23.352;2023-03-13T06:00:41;95703.03;;;1.96;58.48
78835;BME280;68187;42.682;23.352;2023-03-13T06:03:08;95702.28;;;2.08;59.46
78835;BME280;68187;42.682;23.352;2023-03-13T06:05:35;95703.47;;;2.19;55.20
78835;BME280;68187;42.682;23.352;2023-03-13T06:08:03;95688.22;;;2.03;55.29
78835;BME280;68187;42.682;23.352;2023-03-13T06:10:31;95716.28;;;2.07;55.68
78835;BME280;68187;42.682;23.352;2023-03-13T06:12:58;95712.06;;;2.00;56.40
78835;BME280;68187;42.682;23.352;2023-03-13T06:15:25;95690.19;;;1.88;55.68
78835;BME280;68187;42.682;23.352;2023-03-13T06:17:51;95707.03;;;1.98;55.73
78835;BME280;68187;42.682;23.352;2023-03-13T06:20:18;95709.88;;;2.03;55.80
78835;BME280;68187;42.682;23.352;2023-03-13T06:22:45;95706.25;;;2.04;55.65
78835;BME280;68187;42.682;23.352;2023-03-13T06:25:13;95705.47;;;2.10;56.25
78835;BME280;68187;42.682;23.352;2023-03-13T06:27:40;95712.72;;;2.22;55.90
78835;BME280;68187;42.682;23.352;2023-03-13T06:30:08;95709.91;;;2.23;55.04
78835;BME280;68187;42.682;23.352;2023-03-13T06:32:35;95722.97;;;2.36;53.80
78835;BME280;68187;42.682;23.352;2023-03-13T06:35:02;95715.31;;;2.41;53.74
78835;BME280;68187;42.682;23.352;2023-03-13T06:37:29;95695.88;;;2.50;53.86
78835;BME280;68187;42.682;23.352;2023-03-13T06:39:56;95695.91;;;2.63;55.04
78835;BME280;68187;42.682;23.352;2023-03-13T06:42:24;95690.06;;;2.81;53.43
78835;BME280;68187;42.682;23.352;2023-03-13T06:44:51;95668.16;;;2.82;52.56
78835;BME280;68187;42.682;23.352;2023-03-13T06:47:17;95682.59;;;3.11;52.16
78835;BME280;68187;42.682;23.352;2023-03-13T06:49:44;95685.75;;;3.19;50.96
78835;BME280;68187;42.682;23.352;2023-03-13T06:52:11;95688.91;;;3.34;51.85
78835;BME280;68187;42.682;23.352;2023-03-13T06:54:37;95701.94;;;3.41;52.03
78835;BME280;68187;42.682;23.352;2023-03-13T06:57:04;95700.75;;;3.37;50.40
78835;BME280;68187;42.682;23.352;2023-03-13T06:59:32;95693.78;;;3.31;51.34
78835;BME280;68187;42.682;23.352;2023-03-13T07:02:00;95680.09;;;3.35;51.27
78835;BME280;68187;42.682;23.352;2023-03-13T07:04:27;95688.50;;;3.44;50.50
78835;BME280;68187;42.682;23.352;2023-03-13T07:06:53;95680.66;;;3.44;50.97
78835;BME280;68187;42.682;23.352;2023-03-13T07:09:20;95685.47;;;3.47;51.68
78835;BME280;68187;42.682;23.352;2023-03-13T07:11:47;95690.09;;;3.45;50.57
78835;BME280;68187;42.682;23.352;2023-03-13T07:14:13;95684.25;;;3.56;50.33
78835;BME280;68187;42.682;23.352;2023-03-13T07:16:41;95693.63;;;3.70;52.13
78835;BME280;68187;42.682;23.352;2023-03-13T07:19:08;95684.31;;;3.81;51.54
78835;BME280;68187;42.682;23.352;2023-03-13T07:21:35;95670.22;;;3.82;52.95
78835;BME280;68187;42.682;23.352;2023-03-13T07:24:02;95683.63;;;3.98;50.97
78835;BME280;68187;42.682;23.352;2023-03-13T07:26:29;95668.91;;;4.04;49.94
78835;BME280;68187;42.682;23.352;2023-03-13T07:28:56;95674.47;;;4.14;49.75
78835;BME280;68187;42.682;23.352;2023-03-13T07:31:22;95680.72;;;4.13;49.71
78835;BME280;68187;42.682;23.352;2023-03-13T07:33:52;95680.84;;;4.24;50.57
78835;BME280;68187;42.682;23.352;2023-03-13T07:36:21;95675.13;;;4.34;50.69
78835;BME280;68187;42.682;23.352;2023-03-13T07:38:48;95682.72;;;4.42;51.62
78835;BME280;68187;42.682;23.352;2023-03-13T07:41:15;95683.31;;;4.44;50.79
78835;BME280;68187;42.682;23.352;2023-03-13T07:43:42;95667.78;;;4.49;49.50
78835;BME280;68187;42.682;23.352;2023-03-13T07:46:11;95685.63;;;4.59;48.31
78835;BME280;68187;42.682;23.352;2023-03-13T07:48:41;95678.41;;;4.54;49.24
78835;BME280;68187;42.682;23.352;2023-03-13T07:51:12;95679.31;;;4.66;49.65
78835;BME280;68187;42.682;23.352;2023-03-13T07:53:39;95678.41;;;4.79;49.05
78835;BME280;68187;42.682;23.352;2023-03-13T07:56:07;95677.97;;;4.82;49.20
78835;BME280;68187;42.682;23.352;2023-03-13T07:58:37;95668.63;;;4.92;48.99
78835;BME280;68187;42.682;23.352;2023-03-13T08:01:07;95662.50;;;4.98;46.76
78835;BME280;68187;42.682;23.352;2023-03-13T08:03:35;95663.31;;;4.99;46.79
78835;BME280;68187;42.682;23.352;2023-03-13T08:06:04;95664.16;;;5.18;47.98
78835;BME280;68187;42.682;23.352;2023-03-13T08:08:32;95665.16;;;5.35;46.22
78835;BME280;68187;42.682;23.352;2023-03-13T08:11:00;95662.91;;;5.38;47.38
78835;BME280;68187;42.682;23.352;2023-03-13T08:13:27;95654.16;;;5.44;48.14
78835;BME280;68187;42.682;23.352;2023-03-13T08:16:01;95656.75;;;5.62;47.28
78835;BME280;68187;42.682;23.352;2023-03-13T08:18:28;95642.06;;;5.61;46.40
78835;BME280;68187;42.682;23.352;2023-03-13T08:21:00;95644.59;;;5.68;46.15
78835;BME280;68187;42.682;23.352;2023-03-13T08:23:27;95654.84;;;5.88;46.60
78835;BME280;68187;42.682;23.352;2023-03-13T08:25:55;95659.09;;;6.00;44.96
78835;BME280;68187;42.682;23.352;2023-03-13T08:28:22;95663.09;;;6.03;45.78
78835;BME280;68187;42.682;23.352;2023-03-13T08:30:48;95650.00;;;6.03;45.49
78835;BME280;68187;42.682;23.352;2023-03-13T08:33:15;95665.91;;;6.19;44.45
78835;BME280;68187;42.682;23.352;2023-03-13T08:35:42;95673.09;;;6.24;45.84
78835;BME280;68187;42.682;23.352;2023-03-13T08:38:08;95663.56;;;6.41;44.38
78835;BME280;68187;42.682;23.352;2023-03-13T08:40:35;95669.97;;;6.57;44.87
78835;BME280;68187;42.682;23.352;2023-03-13T08:43:03;95651.72;;;6.73;44.76
78835;BME280;68187;42.682;23.352;2023-03-13T08:45:30;95660.75;;;6.89;41.71
78835;BME280;68187;42.682;23.352;2023-03-13T08:47:56;95657.31;;;7.00;42.18
78835;BME280;68187;42.682;23.352;2023-03-13T08:50:23;95646.38;;;7.14;44.00
78835;BME280;68187;42.682;23.352;2023-03-13T08:52:50;95655.91;;;7.44;42.31
78835;BME280;68187;42.682;23.352;2023-03-13T08:55:17;95649.72;;;7.50;41.93
78835;BME280;68187;42.682;23.352;2023-03-13T08:57:43;95654.16;;;7.61;40.78
78835;BME280;68187;42.682;23.352;2023-03-13T09:00:13;95653.16;;;7.50;42.84
78835;BME280;68187;42.682;23.352;2023-03-13T09:02:39;95650.75;;;7.60;40.73
78835;BME280;68187;42.682;23.352;2023-03-13T09:05:07;95649.38;;;7.86;43.39
78835;BME280;68187;42.682;23.352;2023-03-13T09:07:33;95645.47;;;8.17;40.45
78835;BME280;68187;42.682;23.352;2023-03-13T09:10:00;95650.84;;;8.22;38.77
78835;BME280;68187;42.682;23.352;2023-03-13T09:12:27;95647.16;;;8.23;40.96
78835;BME280;68187;42.682;23.352;2023-03-13T09:14:55;95654.84;;;8.24;39.04
78835;BME280;68187;42.682;23.352;2023-03-13T09:17:23;95649.47;;;8.19;38.65
78835;BME280;68187;42.682;23.352;2023-03-13T09:19:50;95641.50;;;8.14;39.67
78835;BME280;68187;42.682;23.352;2023-03-13T09:22:17;95628.50;;;8.08;40.83
78835;BME280;68187;42.682;23.352;2023-03-13T09:24:44;95631.25;;;8.29;39.99
78835;BME280;68187;42.682;23.352;2023-03-13T09:27:10;95630.31;;;8.69;38.81
78835;BME280;68187;42.682;23.352;2023-03-13T09:29:37;95629.50;;;9.01;39.36
78835;BME280;68187;42.682;23.352;2023-03-13T09:32:06;95631.97;;;9.29;38.60
78835;BME280;68187;42.682;23.352;2023-03-13T09:34:36;95644.31;;;9.67;35.93
78835;BME280;68187;42.682;23.352;2023-03-13T09:37:03;95640.19;;;9.55;38.00
78835;BME280;68187;42.682;23.352;2023-03-13T09:39:29;95642.09;;;9.38;36.30
78835;BME280;68187;42.682;23.352;2023-03-13T09:42:02;95649.50;;;9.41;38.72
78835;BME280;68187;42.682;23.352;2023-03-13T09:44:37;95643.69;;;9.82;38.53
78835;BME280;68187;42.682;23.352;2023-03-13T09:47:11;95633.72;;;10.11;36.13
78835;BME280;68187;42.682;23.352;2023-03-13T09:49:44;95631.09;;;10.11;35.69
78835;BME280;68187;42.682;23.352;2023-03-13T09:52:15;95626.25;;;10.29;35.11
78835;BME280;68187;42.682;23.352;2023-03-13T09:54:46;95615.31;;;10.42;34.32
78835;BME280;68187;42.682;23.352;2023-03-13T09:57:19;95621.56;;;10.36;35.06
78835;BME280;68187;42.682;23.352;2023-03-13T09:59:53;95617.91;;;10.37;34.96
78835;BME280;68187;42.682;23.352;2023-03-13T10:02:27;95620.38;;;10.49;35.63
78835;BME280;68187;42.682;23.352;2023-03-13T10:05:02;95618.44;;;10.71;35.55
78835;BME280;68187;42.682;23.352;2023-03-13T10:07:30;95621.22;;;10.91;34.63
78835;BME280;68187;42.682;23.352;2023-03-13T10:09:59;95609.78;;;11.22;34.71
78835;BME280;68187;42.682;23.352;2023-03-13T10:12:28;95607.66;;;11.24;33.64
78835;BME280;68187;42.682;23.352;2023-03-13T10:15:11;95595.84;;;11.37;32.20
78835;BME280;68187;42.682;23.352;2023-03-13T10:17:43;95594.09;;;11.63;31.82
78835;BME280;68187;42.682;23.352;2023-03-13T10:20:20;95580.66;;;11.69;31.97
78835;BME280;68187;42.682;23.352;2023-03-13T10:22:49;95575.94;;;11.76;31.85
78835;BME280;68187;42.682;23.352;2023-03-13T10:25:24;95573.44;;;11.60;32.14
78835;BME280;68187;42.682;23.352;2023-03-13T10:27:53;95573.97;;;11.57;32.44
78835;BME280;68187;42.682;23.352;2023-03-13T10:30:23;95571.06;;;11.58;31.53
78835;BME280;68187;42.682;23.352;2023-03-13T10:32:53;95566.28;;;11.55;32.28
78835;BME280;68187;42.682;23.352;2023-03-13T10:35:22;95555.53;;;11.72;32.36
78835;BME280;68187;42.682;23.352;2023-03-13T10:37:49;95563.75;;;11.80;33.10
78835;BME280;68187;42.682;23.352;2023-03-13T10:40:26;95549.19;;;11.78;31.47
78835;BME280;68187;42.682;23.352;2023-03-13T10:42:59;95560.66;;;12.24;34.35
78835;BME280;68187;42.682;23.352;2023-03-13T10:45:31;95544.75;;;12.59;30.63
78835;BME280;68187;42.682;23.352;2023-03-13T10:48:00;95546.84;;;12.77;31.02
78835;BME280;68187;42.682;23.352;2023-03-13T10:50:32;95534.66;;;12.71;29.55
78835;BME280;68187;42.682;23.352;2023-03-13T10:53:20;95527.00;;;12.59;31.09
78835;BME280;68187;42.682;23.352;2023-03-13T10:55:47;95526.16;;;12.84;31.79
78835;BME280;68187;42.682;23.352;2023-03-13T10:58:17;95529.31;;;12.86;31.37
78835;BME280;68187;42.682;23.352;2023-03-13T11:00:47;95530.94;;;12.77;31.37
78835;BME280;68187;42.682;23.352;2023-03-13T11:03:16;95518.47;;;12.77;30.55
78835;BME280;68187;42.682;23.352;2023-03-13T11:05:53;95511.91;;;12.55;31.22
78835;BME280;68187;42.682;23.352;2023-03-13T11:08:23;95504.47;;;12.57;30.27
78835;BME280;68187;42.682;23.352;2023-03-13T11:10:56;95507.34;;;12.75;31.23
78835;BME280;68187;42.682;23.352;2023-03-13T11:13:41;95499.34;;;13.01;30.72
78835;BME280;68187;42.682;23.352;2023-03-13T11:16:17;95496.63;;;13.31;29.32
78835;BME280;68187;42.682;23.352;2023-03-13T11:18:55;95469.28;;;13.30;29.46
78835;BME280;68187;42.682;23.352;2023-03-13T11:21:35;95494.72;;;13.36;29.61
78835;BME280;68187;42.682;23.352;2023-03-13T11:24:09;95485.44;;;13.34;29.31
78835;BME280;68187;42.682;23.352;2023-03-13T11:26:42;95488.03;;;13.49;29.52
78835;BME280;68187;42.682;23.352;2023-03-13T11:29:18;95485.88;;;13.56;29.53
78835;BME280;68187;42.682;23.352;2023-03-13T11:31:50;95486.06;;;13.70;29.62
78835;BME280;68187;42.682;23.352;2023-03-13T11:34:22;95474.19;;;13.52;28.22
78835;BME280;68187;42.682;23.352;2023-03-13T11:36:58;95474.66;;;13.64;29.25
78835;BME280;68187;42.682;23.352;2023-03-13T11:39:47;95476.38;;;13.84;29.34
78835;BME280;68187;42.682;23.352;2023-03-13T11:42:34;95462.50;;;13.97;28.02
78835;BME280;68187;42.682;23.352;2023-03-13T11:45:07;95452.16;;;13.95;28.43
78835;BME280;68187;42.682;23.352;2023-03-13T11:47:46;95455.56;;;14.01;28.82
78835;BME280;68187;42.682;23.352;2023-03-13T11:50:27;95433.38;;;13.87;29.22
78835;BME280;68187;42.682;23.352;2023-03-13T11:53:06;95437.50;;;14.03;28.66
78835;BME280;68187;42.682;23.352;2023-03-13T11:55:51;95437.09;;;14.19;29.55
78835;BME280;68187;42.682;23.352;2023-03-13T11:58:35;95428.91;;;14.11;28.36
78835;BME280;68187;42.682;23.352;2023-03-13T12:01:08;95425.75;;;13.75;28.87
78835;BME280;68187;42.682;23.352;2023-03-13T12:03:42;95418.81;;;13.79;29.65
78835;BME280;68187;42.682;23.352;2023-03-13T12:06:15;95421.38;;;13.94;29.13
78835;BME280;68187;42.682;23.352;2023-03-13T12:08:50;95410.28;;;14.16;29.61
78835;BME280;68187;42.682;23.352;2023-03-13T12:11:21;95392.78;;;14.15;27.72
78835;BME280;68187;42.682;23.352;2023-03-13T12:13:54;95410.91;;;14.37;28.64
78835;BME280;68187;42.682;23.352;2023-03-13T12:16:27;95403.00;;;14.26;27.39
78835;BME280;68187;42.682;23.352;2023-03-13T12:18:59;95401.72;;;14.24;28.45
78835;BME280;68187;42.682;23.352;2023-03-13T12:21:29;95403.09;;;14.16;27.39
78835;BME280;68187;42.682;23.352;2023-03-13T12:24:05;95395.53;;;14.00;27.50
78835;BME280;68187;42.682;23.352;2023-03-13T12:26:37;95393.53;;;13.87;28.19
78835;BME280;68187;42.682;23.352;2023-03-13T12:29:05;95398.34;;;13.85;29.16
78835;BME280;68187;42.682;23.352;2023-03-13T12:31:39;95390.13;;;13.81;28.03
78835;BME280;68187;42.682;23.352;2023-03-13T12:34:11;95394.53;;;13.62;28.82
78835;BME280;68187;42.682;23.352;2023-03-13T12:36:44;95389.56;;;13.50;28.90
78835;BME280;68187;42.682;23.352;2023-03-13T12:39:21;95376.34;;;13.45;29.76
78835;BME280;68187;42.682;23.352;2023-03-13T12:42:04;95377.91;;;13.51;29.76
78835;BME280;68187;42.682;23.352;2023-03-13T12:44:34;95381.50;;;13.27;30.23
78835;BME280;68187;42.682;23.352;2023-03-13T12:47:07;95371.31;;;13.44;29.76
78835;BME280;68187;42.682;23.352;2023-03-13T12:50:07;95381.31;;;13.86;29.66
78835;BME280;68187;42.682;23.352;2023-03-13T12:52:52;95381.53;;;13.94;28.53
78835;BME280;68187;42.682;23.352;2023-03-13T12:58:38;95371.63;;;13.71;29.14
78835;BME280;68187;42.682;23.352;2023-03-13T13:01:11;95382.81;;;13.68;28.62
78835;BME280;68187;42.682;23.352;2023-03-13T13:03:48;95389.28;;;13.86;33.09
78835;BME280;68187;42.682;23.352;2023-03-13T13:06:16;95396.28;;;14.39;29.13
78835;BME280;68187;42.682;23.352;2023-03-13T13:09:00;95388.00;;;14.88;30.06
78835;BME280;68187;42.682;23.352;2023-03-13T13:11:42;95387.09;;;14.97;26.75